createdAt,value
2023-11-29T00:04:20.686Z,91.41
2023-11-29T00:10:26.190Z,91.75
2023-11-29T00:16:29.144Z,91.35
2023-11-29T00:22:33.997Z,89.71
2023-11-29T00:28:37.054Z,89.91
2023-11-29T00:34:39.507Z,91.75
2023-11-29T00:40:41.990Z,90.92
2023-11-29T00:46:45.458Z,90.76
2023-11-29T00:52:54.885Z,90.67
2023-11-29T00:59:01.418Z,92.02
2023-11-29T01:05:06.909Z,92.45
2023-11-29T01:11:11.298Z,94.00
2023-11-29T01:17:16.170Z,93.20
2023-11-29T01:23:21.396Z,91.69
2023-11-29T01:29:24.747Z,90.76
2023-11-29T01:35:28.300Z,91.16
2023-11-29T01:41:30.743Z,95.55
2023-11-29T01:47:39.258Z,94.65
2023-11-29T01:53:42.710Z,95.12
2023-11-29T01:59:45.153Z,98.59
2023-11-29T02:05:48.636Z,90.68
2023-11-29T02:11:55.067Z,92.58
2023-11-29T02:17:57.661Z,94.91
2023-11-29T02:24:07.022Z,97.15
2023-11-29T02:30:12.182Z,91.90
2023-11-29T02:36:14.247Z,93.56
2023-11-29T02:42:16.883Z,93.48
2023-11-29T02:48:19.114Z,98.57
2023-11-29T02:54:21.222Z,100.00
2023-11-29T03:00:23.557Z,99.06
2023-11-29T03:06:29.727Z,98.78
2023-11-29T03:12:34.610Z,97.11
2023-11-29T03:18:38.763Z,96.18
2023-11-29T03:24:48.877Z,96.08
2023-11-29T03:30:51.226Z,95.21
2023-11-29T03:36:53.710Z,94.48
2023-11-29T03:42:56.160Z,93.54
2023-11-29T03:48:58.657Z,92.54
2023-11-29T03:55:01.137Z,92.74
2023-11-29T04:01:04.620Z,92.27
2023-11-29T04:07:14.074Z,92.63
2023-11-29T04:13:16.530Z,93.45
2023-11-29T04:19:19.007Z,93.15
2023-11-29T04:25:23.460Z,93.04
2023-11-29T04:31:30.077Z,93.12
2023-11-29T04:43:58.689Z,93.46
2023-11-29T04:50:01.514Z,93.31
2023-11-29T04:56:04.992Z,93.75
2023-11-29T05:02:07.540Z,94.18
2023-11-29T05:08:14.767Z,94.12
2023-11-29T05:14:17.547Z,93.86
2023-11-29T05:20:33.467Z,93.58
2023-11-29T05:26:36.412Z,91.94
2023-11-29T05:32:45.934Z,87.87
2023-11-29T05:38:48.069Z,85.81
2023-11-29T05:44:54.806Z,87.10
2023-11-29T05:51:05.293Z,87.42
2023-11-29T05:57:07.866Z,87.58
2023-11-29T06:03:32.237Z,88.48
2023-11-29T06:09:44.650Z,89.58
2023-11-29T06:16:04.789Z,89.40
2023-11-29T06:22:07.002Z,87.36
2023-11-29T06:28:09.302Z,85.15
2023-11-29T06:34:11.734Z,84.75
2023-11-29T06:40:17.911Z,83.61
2023-11-29T06:46:28.613Z,83.86
2023-11-29T06:52:33.159Z,83.84
2023-11-29T07:05:36.374Z,83.57
2023-11-29T07:11:46.381Z,84.00
2023-11-29T07:17:55.476Z,84.21
2023-11-29T07:23:59.514Z,83.73
2023-11-29T07:30:17.328Z,83.24
2023-11-29T07:36:19.808Z,82.52
2023-11-29T07:42:29.724Z,81.54
2023-11-29T07:48:32.771Z,82.04
2023-11-29T07:54:41.233Z,81.90
2023-11-29T08:07:18.908Z,81.70
2023-11-29T08:26:07.911Z,81.17
2023-11-29T08:39:36.294Z,81.85
2023-11-29T08:45:46.868Z,82.30
2023-11-29T08:51:56.928Z,82.39
2023-11-29T08:58:00.657Z,82.50
2023-11-29T09:04:13.512Z,82.34
2023-11-29T09:16:48.845Z,80.35
2023-11-29T09:23:09.366Z,79.88
2023-11-29T09:29:38.402Z,79.04
2023-11-29T09:35:56.936Z,79.01
2023-11-29T09:42:01.344Z,77.72
2023-11-29T09:54:32.600Z,75.64
2023-11-29T10:00:41.863Z,76.15
2023-11-29T10:19:58.511Z,72.48
2023-11-29T10:26:12.815Z,72.60
2023-11-29T10:53:25.580Z,71.16
2023-11-29T11:05:57.218Z,70.00
2023-11-29T11:20:09.967Z,70.46
2023-11-29T11:30:17.177Z,69.82
2023-11-29T11:33:06.802Z,72.17
2023-11-29T11:53:06.399Z,71.67
2023-11-29T12:27:42.777Z,70.23
2023-11-29T12:59:17.258Z,69.80
2023-11-29T13:17:20.096Z,68.99
2023-11-29T13:30:25.129Z,68.04
2023-11-29T13:36:27.275Z,67.96
2023-11-29T13:42:35.206Z,68.88
2023-11-29T13:55:04.783Z,69.86
2023-11-29T14:03:24.409Z,69.91
2023-11-29T14:08:01.778Z,69.83
2023-11-29T14:29:11.078Z,69.29
2023-11-29T14:35:15.487Z,69.60
2023-11-29T14:48:54.360Z,69.76
2023-11-29T15:02:23.526Z,68.80
2023-11-29T15:08:41.070Z,67.62
2023-11-29T15:20:59.072Z,64.10
2023-11-29T15:27:32.814Z,64.53
2023-11-29T15:33:35.275Z,63.74
2023-11-29T15:46:24.946Z,64.22
2023-11-29T15:52:35.063Z,63.99
2023-11-29T15:58:42.445Z,64.94
2023-11-29T16:05:01.011Z,64.87
2023-11-29T16:17:43.719Z,64.44
2023-11-29T16:23:53.495Z,62.49
2023-11-29T16:30:03.218Z,61.91
2023-11-29T16:36:11.993Z,59.79
2023-11-29T16:42:21.671Z,62.08
2023-11-29T16:48:36.688Z,59.33
2023-11-29T17:01:03.383Z,61.16
2023-11-29T17:07:32.189Z,60.67
2023-11-29T17:13:34.299Z,61.28
2023-11-29T17:19:37.016Z,60.91
2023-11-29T17:25:38.983Z,59.74
2023-11-29T17:31:54.389Z,60.10
2023-11-29T17:50:29.230Z,60.39
2023-11-29T17:56:39.869Z,60.73
2023-11-29T18:02:59.256Z,61.06
2023-11-29T18:15:28.250Z,61.95
2023-11-29T18:27:59.229Z,61.86
2023-11-29T18:34:31.972Z,60.91
2023-11-29T18:47:01.017Z,62.36
2023-11-29T18:53:03.317Z,62.37
2023-11-29T18:59:15.491Z,62.56
2023-11-29T19:05:18.288Z,60.97
2023-11-29T19:11:31.914Z,62.57
2023-11-29T19:24:01.889Z,62.72
2023-11-29T19:30:06.285Z,63.33
2023-11-29T19:42:43.911Z,62.93
2023-11-29T19:49:06.899Z,62.29
2023-11-29T19:55:18.373Z,62.99
2023-11-29T20:01:33.472Z,64.33
2023-11-29T20:07:43.398Z,63.79
2023-11-29T20:13:45.901Z,66.31
2023-11-29T20:20:01.213Z,65.06
2023-11-29T20:26:21.928Z,68.29
2023-11-29T20:32:27.428Z,68.53
2023-11-29T20:38:36.847Z,67.35
2023-11-29T20:44:39.476Z,66.51
2023-11-29T20:50:56.131Z,66.96
2023-11-29T20:57:18.326Z,67.66
2023-11-29T21:03:31.560Z,66.23
2023-11-29T21:09:36.002Z,65.51
2023-11-29T21:15:46.308Z,65.69
2023-11-29T21:21:53.479Z,65.25
2023-11-29T21:28:02.935Z,64.58
2023-11-29T21:34:16.876Z,64.75
2023-11-29T21:40:41.976Z,64.97
2023-11-29T21:53:24.289Z,65.70
2023-11-29T21:59:33.827Z,65.41
2023-11-29T22:11:58.648Z,66.83
2023-11-29T22:24:26.687Z,66.21
2023-11-29T22:30:45.458Z,70.13
2023-11-29T22:37:00.366Z,72.26
2023-11-29T22:43:05.531Z,71.92
2023-11-29T22:55:34.959Z,69.48
2023-11-29T23:07:55.632Z,74.38
2023-11-29T23:14:09.595Z,73.26
2023-11-29T23:20:25.177Z,72.03
2023-11-29T23:52:52.951Z,72.34
2023-11-29T23:59:27.517Z,73.66
